Time;durP1;ratioP1;P1;durP2;ratioP2;P2;SDS_P1;SDS_P2;PMS_P1;PMS_P2;Temp;Humidity;BMP_temperature;BMP_pressure;BME280_temperature;BME280_humidity;BME280_pressure;Samples;Min_cycle;Max_cycle;Signal;HPM_P1;HPM_P2
2023/03/10 00:01:25;;;;;;;;;;;;;;;8.32;84.63;92708.44;5052491;28;19917;-38
2023/03/10 00:03:51;;;;;;;;;;;;;;;8.29;85.19;92714.31;5052192;28;19924;-38
2023/03/10 00:06:18;;;;;;;;;;;;;;;8.26;85.70;92715.41;5052306;28;19912;-38
2023/03/10 00:08:43;;;;;;;;;;;;;;;8.23;84.77;92706.19;5052009;28;19924;-38
2023/03/10 00:11:09;;;;;;;;;;;;;;;8.10;85.28;92697.44;5051959;28;19913;-38
2023/03/10 00:13:34;;;;;;;;;;;;;;;8.22;85.60;92693.75;5051776;28;19917;-38
2023/03/10 00:15:59;;;;;;;;;;;;;;;7.86;86.82;92684.94;5051831;28;19924;-38
2023/03/10 00:18:25;;;;;;;;;;;;;;;7.92;87.02;92685.53;5050317;28;19942;-38
2023/03/10 00:20:51;;;;;;;;;;;;;;;7.73;87.66;92687.16;5031909;28;19924;-38
2023/03/10 00:23:16;;;;;;;;;;;;;;;7.58;89.33;92688.59;5031812;28;19979;-38
2023/03/10 00:25:41;;;;;;;;;;;;;;;7.46;89.82;92681.25;5031772;28;19963;-38
2023/03/10 00:28:07;;;;;;;;;;;;;;;7.31;89.39;92686.72;5031686;28;19917;-38
2023/03/10 00:30:34;;;;;;;;;;;;;;;7.16;90.21;92690.19;5031740;28;19971;-38
2023/03/10 00:32:59;;;;;;;;;;;;;;;7.46;90.67;92698.47;5034663;28;20416;-38
2023/03/10 00:35:25;;;;;;;;;;;;;;;7.34;90.44;92699.38;5051912;28;19955;-38
2023/03/10 00:37:50;;;;;;;;;;;;;;;7.35;90.75;92704.31;5051666;28;19927;-38
2023/03/10 00:40:16;;;;;;;;;;;;;;;7.18;89.77;92706.84;5051745;28;20412;-38
2023/03/10 00:42:43;;;;;;;;;;;;;;;6.97;88.54;92710.97;5051585;28;20000;-38
2023/03/10 00:45:08;;;;;;;;;;;;;;;7.00;88.53;92713.34;5036945;28;19917;-38
2023/03/10 00:47:34;;;;;;;;;;;;;;;6.82;88.28;92698.66;5031033;28;20012;-38
2023/03/10 00:49:59;;;;;;;;;;;;;;;6.65;88.62;92701.13;5031583;28;19945;-37
2023/03/10 00:52:24;;;;;;;;;;;;;;;6.88;86.87;92693.00;5031275;28;20286;-38
2023/03/10 00:54:50;;;;;;;;;;;;;;;6.65;87.70;92690.16;5031199;28;19921;-38
2023/03/10 00:57:16;;;;;;;;;;;;;;;6.54;87.59;92687.72;5046469;28;19917;-38
2023/03/10 00:59:41;;;;;;;;;;;;;;;6.47;87.41;92691.19;5050801;28;19924;-38
2023/03/10 01:02:06;;;;;;;;;;;;;;;6.63;87.83;92681.00;5050764;28;19964;-38
2023/03/10 01:04:31;;;;;;;;;;;;;;;6.43;89.62;92673.59;5051051;28;19964;-38
2023/03/10 01:06:57;;;;;;;;;;;;;;;6.31;90.31;92683.41;5050728;28;19923;-38
2023/03/10 01:09:22;;;;;;;;;;;;;;;6.32;90.00;92682.13;5050917;28;19920;-38
2023/03/10 01:11:48;;;;;;;;;;;;;;;6.48;89.55;92678.94;5050948;28;19948;-38
2023/03/10 01:14:13;;;;;;;;;;;;;;;6.33;88.88;92686.31;5050396;28;19920;-38
2023/03/10 01:16:39;;;;;;;;;;;;;;;6.40;89.48;92689.13;5050666;28;19913;-38
2023/03/10 01:19:04;;;;;;;;;;;;;;;6.58;88.47;92684.66;5043168;28;19913;-38
2023/03/10 01:21:30;;;;;;;;;;;;;;;6.51;88.28;92688.09;5030114;28;20004;-38
2023/03/10 01:23:56;;;;;;;;;;;;;;;6.26;88.37;92690.50;5030231;28;19949;-38
2023/03/10 01:26:21;;;;;;;;;;;;;;;6.34;87.49;92687.81;5030331;28;19971;-38
2023/03/10 01:28:47;;;;;;;;;;;;;;;6.00;87.67;92687.94;5030130;28;19913;-38
2023/03/10 01:31:12;;;;;;;;;;;;;;;5.89;88.46;92686.22;5030228;28;19917;-38
2023/03/10 01:33:41;;;;;;;;;;;;;;;5.76;90.48;92694.50;5030302;28;20321;-38
2023/03/10 01:36:10;;;;;;;;;;;;;;;5.74;91.34;92682.63;5030253;28;20472;-37
2023/03/10 01:38:36;;;;;;;;;;;;;;;5.90;91.10;92684.97;5030113;28;19913;-38
2023/03/10 01:41:01;;;;;;;;;;;;;;;5.87;92.44;92679.81;5030165;28;20306;-38
2023/03/10 01:43:31;;;;;;;;;;;;;;;5.66;92.44;92690.78;5029911;28;19924;-37
2023/03/10 01:45:59;;;;;;;;;;;;;;;5.67;93.42;92681.28;5030199;28;19917;-38
2023/03/10 01:48:25;;;;;;;;;;;;;;;5.87;93.55;92679.81;5029922;28;19951;-37
2023/03/10 01:50:50;;;;;;;;;;;;;;;6.05;93.15;92689.81;5030101;28;20321;-38
2023/03/10 01:53:16;;;;;;;;;;;;;;;6.03;92.11;92693.09;5045118;28;19948;-38
2023/03/10 01:55:42;;;;;;;;;;;;;;;6.16;90.08;92694.25;5039762;28;19927;-38
2023/03/10 01:58:08;;;;;;;;;;;;;;;5.74;88.84;92697.03;5029921;28;19917;-38
2023/03/10 02:00:33;;;;;;;;;;;;;;;5.88;89.78;92698.47;5044873;28;19931;-38
2023/03/10 02:02:58;;;;;;;;;;;;;;;6.00;89.66;92696.91;5045275;28;19917;-38
2023/03/10 02:05:24;;;;;;;;;;;;;;;5.77;89.77;92706.19;5029928;28;19921;-38
2023/03/10 02:07:49;;;;;;;;;;;;;;;5.64;89.95;92706.25;5029445;28;20415;-38
2023/03/10 02:10:15;;;;;;;;;;;;;;;5.62;89.36;92714.28;5045171;28;19913;-38
2023/03/10 02:12:42;;;;;;;;;;;;;;;5.45;90.13;92716.69;5029535;28;20004;-38
2023/03/10 02:15:08;;;;;;;;;;;;;;;5.66;89.30;92712.69;5029345;28;19925;-38
2023/03/10 02:17:33;;;;;;;;;;;;;;;5.72;89.04;92718.00;5029433;28;19944;-38
2023/03/10 02:20:03;;;;;;;;;;;;;;;5.52;90.11;92708.56;5029293;28;19967;-38
2023/03/10 02:22:28;;;;;;;;;;;;;;;5.46;91.06;92710.66;5044311;28;19917;-38
2023/03/10 02:24:53;;;;;;;;;;;;;;;5.70;90.28;92710.34;5029265;28;20012;-38
2023/03/10 02:27:19;;;;;;;;;;;;;;;5.80;88.85;92708.63;5029221;28;20007;-38
2023/03/10 02:29:45;;;;;;;;;;;;;;;5.89;89.18;92718.38;5029518;28;19920;-38
2023/03/10 02:32:11;;;;;;;;;;;;;;;5.95;87.92;92716.97;5028941;28;19913;-38
2023/03/10 02:34:36;;;;;;;;;;;;;;;5.88;87.98;92714.16;5060555;28;19970;-38
2023/03/10 02:37:01;;;;;;;;;;;;;;;5.72;89.06;92705.06;5055256;28;19962;-38
2023/03/10 02:39:27;;;;;;;;;;;;;;;5.82;87.98;92697.84;5029209;28;19974;-38
2023/03/10 02:41:52;;;;;;;;;;;;;;;5.77;88.29;92698.72;5029551;28;20007;-38
2023/03/10 02:44:19;;;;;;;;;;;;;;;5.62;90.43;92700.59;5029181;28;19917;-38
2023/03/10 02:46:44;;;;;;;;;;;;;;;5.54;89.97;92697.06;5044865;28;20031;-38
2023/03/10 02:49:10;;;;;;;;;;;;;;;5.19;90.88;92696.38;5029463;28;20373;-38
2023/03/10 02:51:37;;;;;;;;;;;;;;;5.34;91.49;92693.78;5029147;28;19932;-38
2023/03/10 02:54:03;;;;;;;;;;;;;;;5.46;92.20;92693.53;5029275;28;19924;-38
2023/03/10 02:56:29;;;;;;;;;;;;;;;5.52;91.28;92699.59;5037878;28;20392;-38
2023/03/10 02:58:55;;;;;;;;;;;;;;;5.20;90.83;92691.59;5049044;28;19917;-39
2023/03/10 03:01:20;;;;;;;;;;;;;;;5.14;91.92;92688.28;5049029;28;19909;-38
2023/03/10 03:03:45;;;;;;;;;;;;;;;4.90;92.62;92694.78;5048950;28;19913;-38
2023/03/10 03:06:10;;;;;;;;;;;;;;;5.06;93.53;92684.72;5048977;28;19952;-38
2023/03/10 03:08:36;;;;;;;;;;;;;;;5.19;92.65;92692.91;5048984;28;19913;-38
2023/03/10 03:11:01;;;;;;;;;;;;;;;5.05;92.40;92692.19;5048824;28;20320;-38
2023/03/10 03:13:26;;;;;;;;;;;;;;;4.93;92.36;92698.44;5048929;28;19931;-38
2023/03/10 03:15:52;;;;;;;;;;;;;;;4.93;92.45;92701.19;5048980;28;20628;-38
2023/03/10 03:18:17;;;;;;;;;;;;;;;4.92;92.03;92708.66;5048096;28;19921;-38
2023/03/10 03:20:43;;;;;;;;;;;;;;;4.87;91.92;92711.50;5028913;28;20012;-38
2023/03/10 03:23:08;;;;;;;;;;;;;;;4.73;93.41;92715.53;5029157;28;19913;-38
2023/03/10 03:25:34;;;;;;;;;;;;;;;4.88;93.16;92710.25;5029092;28;20685;-38
2023/03/10 03:27:59;;;;;;;;;;;;;;;4.78;92.98;92723.63;5029042;28;19913;-38
2023/03/10 03:30:25;;;;;;;;;;;;;;;5.04;91.67;92714.63;5028784;28;19913;-38
2023/03/10 03:32:51;;;;;;;;;;;;;;;4.80;92.70;92718.38;5030598;28;19917;-38
2023/03/10 03:35:18;;;;;;;;;;;;;;;4.77;92.58;92713.19;5048554;28;20007;-39
2023/03/10 03:37:43;;;;;;;;;;;;;;;4.71;93.38;92726.25;5048635;28;19917;-39
2023/03/10 03:40:12;;;;;;;;;;;;;;;4.75;93.86;92708.28;5063980;28;19947;-39
2023/03/10 03:42:38;;;;;;;;;;;;;;;4.82;94.29;92712.34;5048781;28;19927;-39
2023/03/10 03:45:04;;;;;;;;;;;;;;;4.71;94.30;92723.53;5049409;28;20285;-39
2023/03/10 03:47:29;;;;;;;;;;;;;;;4.57;93.61;92707.13;5052351;28;19912;-38
2023/03/10 03:49:54;;;;;;;;;;;;;;;4.55;93.87;92701.47;5052371;28;19968;-39
2023/03/10 03:52:20;;;;;;;;;;;;;;;4.67;93.51;92706.72;5052349;28;20415;-39
2023/03/10 03:54:45;;;;;;;;;;;;;;;4.85;93.69;92711.31;5052085;28;19921;-39
2023/03/10 03:57:10;;;;;;;;;;;;;;;4.93;92.30;92707.41;5037145;28;20381;-39
2023/03/10 03:59:35;;;;;;;;;;;;;;;4.74;94.46;92708.81;5031761;28;19929;-39
2023/03/10 04:02:01;;;;;;;;;;;;;;;4.92;93.90;92711.38;5031970;28;19913;-39
2023/03/10 04:04:26;;;;;;;;;;;;;;;4.96;93.75;92711.06;5031755;28;20371;-39
2023/03/10 04:06:51;;;;;;;;;;;;;;;4.86;93.57;92718.22;5032160;28;19914;-39
2023/03/10 04:09:17;;;;;;;;;;;;;;;4.77;92.69;92713.19;5032076;28;19913;-39
2023/03/10 04:11:42;;;;;;;;;;;;;;;4.84;92.66;92721.50;5032020;28;19913;-39
2023/03/10 04:14:07;;;;;;;;;;;;;;;4.84;92.32;92720.78;5031803;28;20420;-39
2023/03/10 04:16:32;;;;;;;;;;;;;;;4.72;93.74;92714.78;5031892;28;20396;-39
2023/03/10 04:18:58;;;;;;;;;;;;;;;4.52;94.45;92712.72;5031912;28;19925;-39
2023/03/10 04:21:23;;;;;;;;;;;;;;;4.58;94.69;92708.63;5031789;28;20301;-39
2023/03/10 04:23:48;;;;;;;;;;;;;;;4.63;93.44;92715.97;5032037;28;20389;-39
2023/03/10 04:26:14;;;;;;;;;;;;;;;4.42;93.52;92715.16;5031670;28;20321;-39
2023/03/10 04:28:39;;;;;;;;;;;;;;;4.44;94.31;92715.34;5031590;28;19966;-39
2023/03/10 04:31:09;;;;;;;;;;;;;;;4.63;93.91;92713.22;5031387;28;19936;-39
2023/03/10 04:33:34;;;;;;;;;;;;;;;4.52;93.75;92712.72;5055168;28;19926;-39
2023/03/10 04:36:02;;;;;;;;;;;;;;;4.36;94.88;92711.78;5051211;28;20469;-39
2023/03/10 04:38:27;;;;;;;;;;;;;;;4.43;95.34;92711.16;5051125;28;20011;-39
2023/03/10 04:40:57;;;;;;;;;;;;;;;4.26;95.33;92702.56;5051130;28;20055;-39
2023/03/10 04:43:22;;;;;;;;;;;;;;;4.30;94.97;92699.50;5051412;28;20011;-39
2023/03/10 04:45:47;;;;;;;;;;;;;;;4.33;95.87;92699.16;5051053;28;20012;-39
2023/03/10 04:48:13;;;;;;;;;;;;;;;4.61;94.89;92704.09;5051175;28;19916;-39
2023/03/10 04:50:38;;;;;;;;;;;;;;;4.58;93.63;92705.16;5050890;28;20418;-39
2023/03/10 04:53:03;;;;;;;;;;;;;;;4.59;93.32;92701.88;5051125;28;19917;-39
2023/03/10 04:55:28;;;;;;;;;;;;;;;4.68;92.55;92703.44;5049796;28;20071;-39
2023/03/10 04:57:54;;;;;;;;;;;;;;;4.61;92.62;92691.16;5029849;28;19917;-39
2023/03/10 05:00:19;;;;;;;;;;;;;;;4.74;92.42;92695.88;5030756;28;20007;-39
2023/03/10 05:02:44;;;;;;;;;;;;;;;4.69;92.24;92682.31;5030941;28;19948;-39
2023/03/10 05:05:10;;;;;;;;;;;;;;;4.76;92.04;92679.69;5030991;28;19913;-39
2023/03/10 05:07:35;;;;;;;;;;;;;;;4.74;91.53;92687.69;5030628;28;20381;-39
2023/03/10 05:10:00;;;;;;;;;;;;;;;4.94;90.80;92678.03;5030515;28;19917;-39
2023/03/10 05:12:25;;;;;;;;;;;;;;;5.13;89.05;92679.31;5030483;28;19913;-39
2023/03/10 05:14:51;;;;;;;;;;;;;;;4.81;89.93;92678.81;5030439;28;19917;-39
2023/03/10 05:17:16;;;;;;;;;;;;;;;4.58;92.69;92666.88;5030496;28;19913;-39
2023/03/10 05:19:41;;;;;;;;;;;;;;;4.66;93.46;92666.97;5030688;28;19928;-39
2023/03/10 05:22:07;;;;;;;;;;;;;;;4.77;93.23;92667.47;5030297;28;19991;-39
2023/03/10 05:24:32;;;;;;;;;;;;;;;4.74;93.01;92660.34;5030693;28;19992;-39
2023/03/10 05:26:57;;;;;;;;;;;;;;;4.76;93.04;92651.59;5030125;28;20355;-39
2023/03/10 05:29:23;;;;;;;;;;;;;;;4.87;92.92;92651.34;5030664;28;19917;-39
2023/03/10 05:31:48;;;;;;;;;;;;;;;5.10;91.15;92649.56;5030206;28;20415;-39
2023/03/10 05:34:13;;;;;;;;;;;;;;;5.26;90.30;92651.91;5043975;28;19921;-39
2023/03/10 05:36:39;;;;;;;;;;;;;;;5.27;90.63;92658.13;5050310;28;20475;-39
2023/03/10 05:39:05;;;;;;;;;;;;;;;5.33;90.97;92647.78;5050009;28;20435;-39
2023/03/10 05:41:30;;;;;;;;;;;;;;;5.42;89.96;92643.81;5050268;28;19944;-39
2023/03/10 05:43:56;;;;;;;;;;;;;;;5.32;88.88;92643.56;5050204;28;19920;-39
2023/03/10 05:46:21;;;;;;;;;;;;;;;5.14;90.29;92637.03;5050053;28;19920;-39
2023/03/10 05:48:46;;;;;;;;;;;;;;;5.16;91.06;92639.22;5049933;28;20454;-39
2023/03/10 05:51:11;;;;;;;;;;;;;;;5.21;90.14;92638.38;5049760;28;20015;-39
2023/03/10 05:53:37;;;;;;;;;;;;;;;5.31;90.49;92636.63;5049929;28;19932;-39
2023/03/10 05:56:07;;;;;;;;;;;;;;;5.32;91.08;92638.09;5044256;28;19913;-39
2023/03/10 05:58:32;;;;;;;;;;;;;;;5.56;90.73;92639.75;5029644;28;19971;-39
2023/03/10 06:00:57;;;;;;;;;;;;;;;5.74;90.45;92636.78;5029733;28;19925;-39
2023/03/10 06:03:23;;;;;;;;;;;;;;;5.94;90.20;92633.31;5029687;28;19913;-39
2023/03/10 06:05:49;;;;;;;;;;;;;;;6.18;88.95;92631.41;5029972;28;20052;-39
2023/03/10 06:08:14;;;;;;;;;;;;;;;6.33;88.16;92637.72;5029795;28;20012;-39
2023/03/10 06:10:39;;;;;;;;;;;;;;;6.27;89.39;92647.38;5029611;28;20367;-39
2023/03/10 06:13:05;;;;;;;;;;;;;;;6.51;87.11;92639.47;5029994;28;20431;-39
2023/03/10 06:15:30;;;;;;;;;;;;;;;6.76;86.50;92645.94;5029564;28;19952;-39
2023/03/10 06:17:55;;;;;;;;;;;;;;;6.83;85.33;92642.50;5029660;28;19913;-39
2023/03/10 06:20:21;;;;;;;;;;;;;;;7.08;84.12;92644.78;5029577;28;19917;-39
2023/03/10 06:22:46;;;;;;;;;;;;;;;7.42;83.11;92651.44;5029175;28;20007;-39
2023/03/10 06:25:11;;;;;;;;;;;;;;;7.56;81.08;92644.47;5029838;28;20003;-39
2023/03/10 06:27:36;;;;;;;;;;;;;;;7.63;80.74;92637.50;5029355;28;19921;-39
2023/03/10 06:30:02;;;;;;;;;;;;;;;8.03;80.42;92634.94;5029753;28;19916;-38
2023/03/10 06:32:27;;;;;;;;;;;;;;;8.29;79.23;92642.81;5029185;28;19917;-39
2023/03/10 06:34:52;;;;;;;;;;;;;;;8.55;77.81;92631.38;5048215;28;20545;-39
2023/03/10 06:37:18;;;;;;;;;;;;;;;8.66;77.76;92628.22;5049326;28;19920;-38
2023/03/10 06:39:43;;;;;;;;;;;;;;;8.57;77.61;92642.56;5049072;28;20387;-38
2023/03/10 06:42:08;;;;;;;;;;;;;;;8.55;78.26;92634.13;5049377;28;19928;-38
2023/03/10 06:44:34;;;;;;;;;;;;;;;8.72;79.01;92639.75;5048941;28;20400;-38
2023/03/10 06:47:00;;;;;;;;;;;;;;;8.49;78.74;92641.09;5048867;28;19923;-38
2023/03/10 06:49:29;;;;;;;;;;;;;;;8.14;80.60;92642.81;5049000;28;19939;-38
2023/03/10 06:51:54;;;;;;;;;;;;;;;8.25;81.20;92645.19;5049202;28;19913;-39
2023/03/10 06:54:21;;;;;;;;;;;;;;;8.13;82.37;92647.56;5048811;28;19927;-38
2023/03/10 06:56:47;;;;;;;;;;;;;;;8.31;82.51;92648.47;5037387;28;19970;-38
2023/03/10 06:59:12;;;;;;;;;;;;;;;8.32;83.03;92639.66;5029064;28;20420;-39
2023/03/10 07:01:37;;;;;;;;;;;;;;;8.55;82.78;92642.38;5028881;28;19923;-39
2023/03/10 07:04:03;;;;;;;;;;;;;;;8.68;82.09;92644.16;5028954;28;19913;-39
2023/03/10 07:06:29;;;;;;;;;;;;;;;8.74;82.26;92633.69;5028820;28;19920;-39
2023/03/10 07:08:54;;;;;;;;;;;;;;;8.89;82.06;92631.59;5028865;28;20039;-38
2023/03/10 07:11:20;;;;;;;;;;;;;;;8.85;82.40;92625.75;5029081;28;19978;-39
2023/03/10 07:13:45;;;;;;;;;;;;;;;8.97;81.86;92628.78;5028702;28;19921;-39
2023/03/10 07:16:10;;;;;;;;;;;;;;;9.12;81.43;92626.69;5029002;28;20004;-38
2023/03/10 07:18:36;;;;;;;;;;;;;;;9.23;81.40;92627.56;5028617;28;19987;-39
2023/03/10 07:21:05;;;;;;;;;;;;;;;9.35;81.40;92631.34;5030982;28;19913;-39
2023/03/10 07:23:30;;;;;;;;;;;;;;;9.27;81.16;92620.38;5032929;28;19971;-39
2023/03/10 07:25:56;;;;;;;;;;;;;;;9.39;80.96;92626.19;5032538;28;19913;-39
2023/03/10 07:28:21;;;;;;;;;;;;;;;9.44;80.86;92622.47;5032478;28;19913;-38
2023/03/10 07:30:48;;;;;;;;;;;;;;;9.49;80.61;92625.00;5032171;28;19917;-39
2023/03/10 07:33:13;;;;;;;;;;;;;;;9.42;80.94;92619.56;5037643;28;20019;-38
2023/03/10 07:35:38;;;;;;;;;;;;;;;9.23;81.32;92616.53;5052664;28;19999;-39
2023/03/10 07:38:04;;;;;;;;;;;;;;;9.23;82.28;92614.53;5052298;28;19919;-38
2023/03/10 07:40:29;;;;;;;;;;;;;;;9.53;81.45;92610.84;5052168;28;19916;-39
2023/03/10 07:42:54;;;;;;;;;;;;;;;9.74;80.95;92600.22;5052171;28;19924;-37
2023/03/10 07:45:20;;;;;;;;;;;;;;;9.87;80.37;92603.38;5052131;28;19924;-39
2023/03/10 07:47:45;;;;;;;;;;;;;;;10.05;79.55;92606.19;5052315;28;19916;-39
2023/03/10 07:50:11;;;;;;;;;;;;;;;10.11;79.63;92607.44;5052266;28;20378;-38
2023/03/10 07:52:36;;;;;;;;;;;;;;;10.40;77.95;92611.19;5052198;28;19919;-38
2023/03/10 07:55:02;;;;;;;;;;;;;;;10.77;76.54;92603.78;5052262;28;20328;-39
2023/03/10 07:57:27;;;;;;;;;;;;;;;10.97;75.59;92599.13;5051901;28;19917;-39
2023/03/10 07:59:52;;;;;;;;;;;;;;;11.23;74.51;92593.63;5052106;28;19921;-39
2023/03/10 08:02:18;;;;;;;;;;;;;;;11.17;72.95;92590.41;5051866;28;20405;-39
2023/03/10 08:04:43;;;;;;;;;;;;;;;11.50;72.56;92595.66;5052151;28;19974;-39
2023/03/10 08:07:08;;;;;;;;;;;;;;;11.73;72.27;92585.00;5052113;28;19913;-39
2023/03/10 08:09:34;;;;;;;;;;;;;;;11.91;71.54;92578.78;5052057;28;20463;-39
2023/03/10 08:11:59;;;;;;;;;;;;;;;12.51;70.49;92570.72;5051838;28;20645;-39
2023/03/10 08:14:26;;;;;;;;;;;;;;;13.22;67.68;92563.38;5043248;28;19925;-39
2023/03/10 08:16:52;;;;;;;;;;;;;;;13.66;64.30;92546.31;5031626;28;19967;-39
2023/03/10 08:19:17;;;;;;;;;;;;;;;13.78;63.17;92544.34;5031794;28;19917;-39
2023/03/10 08:21:42;;;;;;;;;;;;;;;14.62;62.59;92537.41;5031541;28;20393;-38
2023/03/10 08:24:08;;;;;;;;;;;;;;;15.37;59.83;92526.88;5031774;28;20014;-39
2023/03/10 08:26:33;;;;;;;;;;;;;;;15.27;60.24;92531.81;5031703;28;19995;-39
2023/03/10 08:28:58;;;;;;;;;;;;;;;15.72;57.27;92529.75;5031387;28;19913;-39
2023/03/10 08:31:24;;;;;;;;;;;;;;;15.11;58.44;92514.88;5030894;28;19914;-39
2023/03/10 08:33:49;;;;;;;;;;;;;;;14.93;59.76;92524.13;5041575;28;19921;-39
2023/03/10 08:36:15;;;;;;;;;;;;;;;14.99;57.25;92507.81;5051234;28;19982;-39
2023/03/10 08:38:41;;;;;;;;;;;;;;;14.59;60.65;92502.50;5051029;28;19917;-39
2023/03/10 08:41:07;;;;;;;;;;;;;;;14.69;54.38;92503.84;5051117;28;19963;-39
2023/03/10 08:43:33;;;;;;;;;;;;;;;14.75;55.49;92498.69;5051036;28;19913;-39
2023/03/10 08:45:58;;;;;;;;;;;;;;;14.50;55.82;92498.47;5051338;28;19913;-39
2023/03/10 08:48:23;;;;;;;;;;;;;;;14.81;53.64;92495.56;5050741;28;19982;-39
2023/03/10 08:50:48;;;;;;;;;;;;;;;14.69;54.65;92503.13;5050837;28;20008;-39
2023/03/10 08:53:14;;;;;;;;;;;;;;;15.01;53.45;92489.22;5050766;28;19919;-39
2023/03/10 08:55:39;;;;;;;;;;;;;;;15.07;54.46;92484.03;5050725;28;19939;-39
2023/03/10 08:58:04;;;;;;;;;;;;;;;14.83;55.12;92481.81;5051046;28;19913;-39
2023/03/10 09:00:30;;;;;;;;;;;;;;;14.63;56.87;92484.03;5050687;28;19936;-39
2023/03/10 09:02:56;;;;;;;;;;;;;;;15.25;54.27;92489.97;5050712;28;19916;-39
2023/03/10 09:05:21;;;;;;;;;;;;;;;15.90;52.29;92480.69;5050650;28;20003;-39
2023/03/10 09:07:46;;;;;;;;;;;;;;;17.01;50.10;92481.47;5050431;28;19920;-39
2023/03/10 09:10:11;;;;;;;;;;;;;;;17.50;46.79;92468.06;5046017;28;19933;-39
2023/03/10 09:12:37;;;;;;;;;;;;;;;16.30;49.70;92471.91;5030360;28;19921;-39
2023/03/10 09:15:02;;;;;;;;;;;;;;;15.87;51.22;92477.06;5030655;28;19917;-39
2023/03/10 09:17:27;;;;;;;;;;;;;;;15.74;51.38;92466.56;5030604;28;20385;-39
2023/03/10 09:19:53;;;;;;;;;;;;;;;15.92;50.12;92464.84;5030307;28;19913;-39
2023/03/10 09:22:18;;;;;;;;;;;;;;;15.45;50.18;92465.47;5030497;28;19917;-39
2023/03/10 09:24:43;;;;;;;;;;;;;;;15.17;50.97;92459.63;5030207;28;20250;-39
2023/03/10 09:27:08;;;;;;;;;;;;;;;15.07;51.68;92458.28;5030497;28;19917;-39
2023/03/10 09:29:34;;;;;;;;;;;;;;;15.19;51.47;92459.75;5030596;28;19913;-39
2023/03/10 09:31:59;;;;;;;;;;;;;;;15.26;51.02;92458.06;5029919;28;19913;-39
2023/03/10 09:34:26;;;;;;;;;;;;;;;15.38;52.05;92458.78;5045011;28;19923;-39
2023/03/10 09:36:51;;;;;;;;;;;;;;;15.09;51.15;92455.63;5050405;28;19917;-39
2023/03/10 09:39:17;;;;;;;;;;;;;;;15.16;51.71;92451.88;5050271;28;20424;-39
2023/03/10 09:42:01;;;;;;;;;;;;;;;14.90;51.82;92451.00;5050427;28;19920;-39
2023/03/10 09:44:36;;;;;;;;;;;;;;;14.88;51.72;92436.97;5049603;28;19917;-39
2023/03/10 09:47:09;;;;;;;;;;;;;;;15.22;51.53;92437.63;5050092;28;19921;-39
2023/03/10 09:49:39;;;;;;;;;;;;;;;15.08;51.61;92429.88;5065324;28;19917;-39
2023/03/10 09:52:32;;;;;;;;;;;;;;;15.05;51.44;92442.19;5065675;28;19920;-39
2023/03/10 09:54:59;;;;;;;;;;;;;;;14.97;52.69;92438.94;5048766;28;19943;-39
2023/03/10 09:57:24;;;;;;;;;;;;;;;14.90;51.64;92430.84;5065089;28;20564;-39
2023/03/10 09:59:51;;;;;;;;;;;;;;;14.77;52.91;92431.41;5065082;28;19927;-39
2023/03/10 10:02:19;;;;;;;;;;;;;;;14.67;52.96;92423.16;5065362;28;19916;-39
2023/03/10 10:04:44;;;;;;;;;;;;;;;14.88;52.72;92416.78;5049778;28;19917;-39
2023/03/10 10:07:14;;;;;;;;;;;;;;;15.07;52.74;92414.53;5039314;28;20393;-39
2023/03/10 10:09:45;;;;;;;;;;;;;;;14.80;52.64;92407.97;5029531;28;19917;-39
2023/03/10 10:12:17;;;;;;;;;;;;;;;14.71;53.52;92394.91;5029820;28;20313;-39
2023/03/10 10:14:44;;;;;;;;;;;;;;;14.70;53.05;92388.63;5029329;28;19971;-39
2023/03/10 10:17:09;;;;;;;;;;;;;;;14.49;54.20;92379.66;5029500;28;19920;-39
2023/03/10 10:19:35;;;;;;;;;;;;;;;14.62;53.90;92382.56;5029557;28;19913;-39
2023/03/10 10:22:01;;;;;;;;;;;;;;;14.53;53.93;92386.16;5029593;28;20282;-39
2023/03/10 10:24:27;;;;;;;;;;;;;;;14.51;54.21;92371.44;5044660;28;19917;-39
2023/03/10 10:26:52;;;;;;;;;;;;;;;14.48;53.63;92373.38;5029282;28;20357;-39
2023/03/10 10:29:18;;;;;;;;;;;;;;;14.29;55.46;92362.44;5029221;28;19921;-39
2023/03/10 10:32:03;;;;;;;;;;;;;;;14.46;54.22;92375.28;5044610;28;20300;-39
2023/03/10 10:34:30;;;;;;;;;;;;;;;14.37;54.37;92362.94;5044802;28;19921;-39
2023/03/10 10:36:56;;;;;;;;;;;;;;;14.48;53.57;92359.47;5049041;28;20008;-39
2023/03/10 10:39:25;;;;;;;;;;;;;;;14.38;53.27;92353.28;5049236;28;20011;-39
2023/03/10 10:41:50;;;;;;;;;;;;;;;14.21;52.91;92353.56;5049295;28;19920;-39
2023/03/10 10:44:16;;;;;;;;;;;;;;;14.34;52.90;92347.47;5049180;28;19972;-39
2023/03/10 10:46:51;;;;;;;;;;;;;;;14.37;52.74;92341.47;5049136;28;19916;-39
2023/03/10 10:49:18;;;;;;;;;;;;;;;14.31;52.82;92348.69;5049145;28;19951;-39
2023/03/10 10:51:43;;;;;;;;;;;;;;;14.35;52.73;92341.34;5049172;28;19913;-39
2023/03/10 10:54:49;;;;;;;;;;;;;;;14.29;52.50;92340.25;5064209;28;20038;-39
2023/03/10 10:57:17;;;;;;;;;;;;;;;14.11;53.72;92341.84;5041163;28;19913;-39
2023/03/10 10:59:43;;;;;;;;;;;;;;;13.96;53.89;92336.72;5033730;28;19959;-39
2023/03/10 11:02:29;;;;;;;;;;;;;;;14.09;53.34;92333.38;5051572;28;19913;-39
2023/03/10 11:04:55;;;;;;;;;;;;;;;13.95;53.32;92321.38;5013533;28;20000;-39
2023/03/10 11:07:24;;;;;;;;;;;;;;;13.80;54.34;92319.03;5045179;28;20357;-39
2023/03/10 11:09:49;;;;;;;;;;;;;;;13.72;55.11;92319.25;5013439;28;19952;-37
2023/03/10 11:12:22;;;;;;;;;;;;;;;13.60;55.60;92316.41;5013510;28;19961;-39
2023/03/10 11:14:51;;;;;;;;;;;;;;;13.37;57.22;92310.03;5012869;28;20405;-39
2023/03/10 11:17:22;;;;;;;;;;;;;;;13.31;57.33;92315.91;5013073;28;19917;-39
2023/03/10 11:20:00;;;;;;;;;;;;;;;13.15;57.58;92314.84;5026037;28;19983;-38
2023/03/10 11:22:31;;;;;;;;;;;;;;;12.96;58.89;92314.94;5033100;28;19913;-38
2023/03/10 11:25:19;;;;;;;;;;;;;;;12.87;58.22;92324.75;5032859;28;19951;-39
2023/03/10 11:27:44;;;;;;;;;;;;;;;12.69;60.12;92315.19;5011657;28;19920;-39
2023/03/10 11:30:22;;;;;;;;;;;;;;;12.57;60.95;92314.38;5012782;28;19913;-39
2023/03/10 11:33:09;;;;;;;;;;;;;;;12.49;62.67;92318.63;5031480;28;20314;-39
2023/03/10 11:35:36;;;;;;;;;;;;;;;12.44;63.24;92325.22;5052836;28;19917;-39
2023/03/10 11:38:21;;;;;;;;;;;;;;;12.35;65.22;92323.19;5068249;28;19915;-39
2023/03/10 11:41:10;;;;;;;;;;;;;;;12.09;67.47;92320.06;5052354;28;19921;-38
2023/03/10 11:43:55;;;;;;;;;;;;;;;11.87;69.40;92332.31;5051969;28;19917;-39
2023/03/10 11:46:38;;;;;;;;;;;;;;;11.63;73.38;92332.63;5052728;28;20015;-38
2023/03/10 11:49:07;;;;;;;;;;;;;;;11.50;74.52;92330.28;5067670;28;19913;-38
2023/03/10 11:51:45;;;;;;;;;;;;;;;11.50;75.41;92324.75;5067996;28;19923;-38
2023/03/10 11:54:25;;;;;;;;;;;;;;;11.50;74.70;92319.94;5052155;28;20491;-38
2023/03/10 11:56:50;;;;;;;;;;;;;;;11.47;74.40;92307.31;5051493;28;19913;-38
2023/03/10 11:59:22;;;;;;;;;;;;;;;11.47;74.08;92304.53;5060248;28;19928;-39
2023/03/10 12:01:58;;;;;;;;;;;;;;;11.42;74.17;92291.72;5047628;28;19951;-38
2023/03/10 12:04:23;;;;;;;;;;;;;;;11.28;77.64;92287.97;5047451;28;20042;-38
2023/03/10 12:07:04;;;;;;;;;;;;;;;11.22;80.35;92270.91;5031447;28;20004;-38
2023/03/10 12:09:41;;;;;;;;;;;;;;;11.33;78.00;92260.03;5032110;28;19913;-38
2023/03/10 12:12:06;;;;;;;;;;;;;;;11.36;77.30;92256.09;5047419;28;19917;-38
2023/03/10 12:14:32;;;;;;;;;;;;;;;11.45;77.89;92243.59;5031539;28;19917;-38
2023/03/10 12:16:57;;;;;;;;;;;;;;;11.63;78.42;92233.81;5047326;28;19921;-38
2023/03/10 12:19:22;;;;;;;;;;;;;;;11.77;75.41;92236.88;5047353;28;19956;-38
2023/03/10 12:22:13;;;;;;;;;;;;;;;11.97;74.42;92241.78;5031434;28;19917;-38
2023/03/10 12:24:45;;;;;;;;;;;;;;;12.07;74.32;92238.97;5031228;28;20020;-39
2023/03/10 12:27:11;;;;;;;;;;;;;;;12.00;75.08;92237.81;5031298;28;19920;-38
2023/03/10 12:29:37;;;;;;;;;;;;;;;12.03;75.52;92224.84;5031391;28;19917;-38
2023/03/10 12:32:02;;;;;;;;;;;;;;;12.16;71.65;92233.41;5031345;28;20025;-38
2023/03/10 12:34:30;;;;;;;;;;;;;;;12.24;69.75;92227.69;5046933;28;20020;-39
2023/03/10 12:36:58;;;;;;;;;;;;;;;12.26;69.48;92213.97;5066743;28;19978;-38
2023/03/10 12:39:27;;;;;;;;;;;;;;;12.10;71.66;92199.78;5051315;28;20452;-38
2023/03/10 12:41:53;;;;;;;;;;;;;;;12.40;68.50;92186.53;5051194;28;19948;-39
2023/03/10 12:44:21;;;;;;;;;;;;;;;12.44;67.62;92176.47;5066576;28;20420;-39
2023/03/10 12:46:59;;;;;;;;;;;;;;;12.42;66.85;92181.88;5050876;28;19923;-38
2023/03/10 12:49:27;;;;;;;;;;;;;;;12.44;67.41;92195.09;5051338;28;20012;-39
2023/03/10 12:52:15;;;;;;;;;;;;;;;12.39;66.17;92201.72;5051269;28;19916;-38